createdAt,value
2023-01-17T00:01:11.296Z,98278.38
2023-01-17T00:03:57.793Z,98289.88
2023-01-17T00:06:45.879Z,98283.63
2023-01-17T00:09:33.103Z,98291.47
2023-01-17T00:12:00.459Z,98291.72
2023-01-17T00:14:27.232Z,98298.53
2023-01-17T00:16:54.073Z,98304.81
2023-01-17T00:19:39.123Z,98298.78
2023-01-17T00:22:38.095Z,98319.97
2023-01-17T00:25:23.680Z,98323.91
2023-01-17T00:27:50.077Z,98324.94
2023-01-17T00:30:16.478Z,98323.41
2023-01-17T00:32:42.806Z,98326.78
2023-01-17T00:35:09.258Z,98335.16
2023-01-17T00:37:35.575Z,98355.31
2023-01-17T00:40:02.185Z,98358.19
2023-01-17T00:42:28.501Z,98361.56
2023-01-17T00:45:13.179Z,98350.59
2023-01-17T00:47:57.799Z,98363.16
2023-01-17T00:50:42.488Z,98360.00
2023-01-17T00:53:27.239Z,98367.34
2023-01-17T00:56:11.943Z,98362.38
2023-01-17T00:58:56.756Z,98346.16
2023-01-17T01:01:41.628Z,98356.88
2023-01-17T01:04:26.858Z,98367.06
2023-01-17T01:07:11.772Z,98386.41
2023-01-17T01:09:56.427Z,98374.63
2023-01-17T01:12:41.347Z,98384.56
2023-01-17T01:15:27.024Z,98384.06
2023-01-17T01:18:11.996Z,98388.75
2023-01-17T01:20:56.882Z,98393.44
2023-01-17T01:23:41.741Z,98402.06
2023-01-17T01:26:26.508Z,98390.03
2023-01-17T01:29:11.151Z,98385.09
2023-01-17T01:31:56.016Z,98391.59
2023-01-17T01:34:23.050Z,98402.31
2023-01-17T01:36:49.465Z,98405.97
2023-01-17T01:39:15.849Z,98408.59
2023-01-17T01:41:42.309Z,98417.72
2023-01-17T01:44:44.192Z,98420.03
2023-01-17T01:47:13.626Z,98420.31
2023-01-17T01:49:40.251Z,98433.38
2023-01-17T01:52:07.889Z,98434.66
2023-01-17T01:54:37.810Z,98432.59
2023-01-17T01:57:06.837Z,98451.91
2023-01-17T01:59:33.850Z,98457.13
2023-01-17T02:02:00.318Z,98464.19
2023-01-17T02:04:27.701Z,98469.16
2023-01-17T02:07:00.307Z,98469.66
2023-01-17T02:09:27.147Z,98474.63
2023-01-17T02:11:53.823Z,98474.34
2023-01-17T02:14:21.651Z,98472.50
2023-01-17T02:17:22.281Z,98477.66
2023-01-17T02:19:48.531Z,98478.34
2023-01-17T02:22:39.627Z,98474.22
2023-01-17T02:25:27.253Z,98483.63
2023-01-17T02:28:10.073Z,98489.94
2023-01-17T02:30:42.767Z,98491.47
2023-01-17T02:33:29.301Z,98503.47
2023-01-17T02:36:23.101Z,98496.13
2023-01-17T02:39:01.648Z,98509.22
2023-01-17T02:41:31.296Z,98506.38
2023-01-17T02:43:57.667Z,98497.22
2023-01-17T02:46:24.083Z,98503.22
2023-01-17T02:48:51.575Z,98505.84
2023-01-17T02:51:47.484Z,98499.81
2023-01-17T02:54:29.001Z,98493.81
2023-01-17T02:57:19.656Z,98500.56
2023-01-17T03:00:04.315Z,98509.69
2023-01-17T03:02:33.836Z,98514.16
2023-01-17T03:05:13.223Z,98516.25
2023-01-17T03:07:39.979Z,98516.28
2023-01-17T03:10:07.126Z,98518.91
2023-01-17T03:12:35.843Z,98519.41
2023-01-17T03:15:02.332Z,98523.31
2023-01-17T03:17:31.889Z,98527.22
2023-01-17T03:19:58.719Z,98524.38
2023-01-17T03:22:25.126Z,98533.78
2023-01-17T03:24:51.543Z,98535.59
2023-01-17T03:27:17.906Z,98539.81
2023-01-17T03:29:44.322Z,98537.19
2023-01-17T03:32:10.745Z,98549.44
2023-01-17T03:34:37.144Z,98547.63
2023-01-17T03:37:03.579Z,98543.44
2023-01-17T03:39:30.033Z,98541.06
2023-01-17T03:41:56.397Z,98543.69
2023-01-17T03:44:22.837Z,98541.06
2023-01-17T03:46:49.202Z,98541.06
2023-01-17T03:49:16.660Z,98550.50
2023-01-17T03:51:43.146Z,98546.28
2023-01-17T03:54:09.676Z,98552.31
2023-01-17T03:56:36.081Z,98552.31
2023-01-17T03:59:02.513Z,98550.75
2023-01-17T04:01:28.959Z,98549.97
2023-01-17T04:03:55.444Z,98564.59
2023-01-17T04:06:21.796Z,98562.22
2023-01-17T04:08:48.144Z,98560.66
2023-01-17T04:11:14.521Z,98573.72
2023-01-17T04:13:40.899Z,98577.34
2023-01-17T04:16:10.860Z,98570.78
2023-01-17T04:18:37.259Z,98573.97
2023-01-17T04:21:03.811Z,98564.31
2023-01-17T04:23:30.180Z,98563.53
2023-01-17T04:25:56.571Z,98568.75
2023-01-17T04:28:22.990Z,98573.97
2023-01-17T04:30:49.429Z,98567.16
2023-01-17T04:33:15.880Z,98574.22
2023-01-17T04:35:42.236Z,98573.44
2023-01-17T04:38:08.646Z,98562.97
2023-01-17T04:40:35.013Z,98562.97
2023-01-17T04:43:01.422Z,98563.75
2023-01-17T04:45:27.833Z,98556.97
2023-01-17T04:47:54.312Z,98563.22
2023-01-17T04:50:20.782Z,98560.63
2023-01-17T04:52:47.165Z,98562.44
2023-01-17T04:55:13.605Z,98559.31
2023-01-17T04:57:40.046Z,98561.63
2023-01-17T05:00:07.098Z,98566.63
2023-01-17T05:02:33.760Z,98564.00
2023-01-17T05:05:00.198Z,98565.06
2023-01-17T05:07:26.560Z,98566.09
2023-01-17T05:09:52.967Z,98567.69
2023-01-17T05:12:20.629Z,98566.09
2023-01-17T05:14:47.044Z,98560.63
2023-01-17T05:17:13.533Z,98573.44
2023-01-17T05:19:39.926Z,98575.53
2023-01-17T05:22:14.754Z,98572.91
2023-01-17T05:24:45.508Z,98584.16
2023-01-17T05:27:12.489Z,98580.78
2023-01-17T05:29:39.212Z,98584.75
2023-01-17T05:32:06.117Z,98579.00
2023-01-17T05:34:33.276Z,98575.13
2023-01-17T05:36:59.784Z,98584.28
2023-01-17T05:39:26.473Z,98588.25
2023-01-17T05:41:53.071Z,98597.16
2023-01-17T05:44:19.538Z,98596.66
2023-01-17T05:46:45.949Z,98595.38
2023-01-17T05:49:12.383Z,98585.41
2023-01-17T05:51:39.551Z,98612.41
2023-01-17T05:54:06.108Z,98617.38
2023-01-17T05:56:33.316Z,98623.69
2023-01-17T05:58:59.739Z,98626.56
2023-01-17T06:01:26.167Z,98622.69
2023-01-17T06:03:52.611Z,98622.97
2023-01-17T06:06:19.143Z,98620.66
2023-01-17T06:08:45.570Z,98622.72
2023-01-17T06:11:11.996Z,98614.41
2023-01-17T06:13:38.390Z,98618.06
2023-01-17T06:16:04.974Z,98611.56
2023-01-17T06:18:31.984Z,98617.06
2023-01-17T06:20:58.708Z,98621.78
2023-01-17T06:23:25.475Z,98627.56
2023-01-17T06:25:52.140Z,98624.19
2023-01-17T06:28:20.971Z,98628.38
2023-01-17T06:30:47.431Z,98628.13
2023-01-17T06:33:14.080Z,98627.88
2023-01-17T06:35:42.985Z,98620.31
2023-01-17T06:38:09.952Z,98638.13
2023-01-17T06:40:36.424Z,98632.41
2023-01-17T06:43:04.277Z,98626.63
2023-01-17T06:45:31.646Z,98638.16
2023-01-17T06:47:59.213Z,98629.28
2023-01-17T06:50:25.918Z,98636.38
2023-01-17T06:52:56.692Z,98639.75
2023-01-17T06:55:23.817Z,98636.38
2023-01-17T06:57:50.683Z,98638.47
2023-01-17T07:00:17.585Z,98631.97
2023-01-17T07:02:47.691Z,98634.06
2023-01-17T07:05:14.144Z,98635.13
2023-01-17T07:07:40.509Z,98630.44
2023-01-17T07:10:07.174Z,98630.16
2023-01-17T07:12:33.605Z,98641.97
2023-01-17T07:15:00.029Z,98639.09
2023-01-17T07:17:26.413Z,98638.84
2023-01-17T07:19:52.761Z,98642.53
2023-01-17T07:22:19.284Z,98639.91
2023-01-17T07:24:45.652Z,98642.00
2023-01-17T07:27:12.005Z,98643.56
2023-01-17T07:29:38.421Z,98640.69
2023-01-17T07:32:04.933Z,98656.94
2023-01-17T07:34:31.534Z,98653.28
2023-01-17T07:36:57.980Z,98651.19
2023-01-17T07:39:24.408Z,98653.56
2023-01-17T07:41:50.830Z,98654.34
2023-01-17T07:44:17.249Z,98652.25
2023-01-17T07:46:43.740Z,98651.22
2023-01-17T07:49:10.168Z,98652.00
2023-01-17T07:51:36.586Z,98654.34
2023-01-17T07:54:03.499Z,98657.50
2023-01-17T07:56:29.931Z,98663.50
2023-01-17T07:58:56.354Z,98659.59
2023-01-17T08:01:22.821Z,98653.06
2023-01-17T08:03:50.986Z,98647.28
2023-01-17T08:06:20.591Z,98661.97
2023-01-17T08:08:47.356Z,98660.69
2023-01-17T08:11:14.158Z,98664.06
2023-01-17T08:13:41.728Z,98668.81
2023-01-17T08:16:11.419Z,98655.94
2023-01-17T08:18:37.817Z,98677.91
2023-01-17T08:21:04.661Z,98674.03
2023-01-17T08:23:31.580Z,98674.03
2023-01-17T08:26:01.463Z,98672.72
2023-01-17T08:28:27.883Z,98686.38
2023-01-17T08:30:54.397Z,98676.66
2023-01-17T08:33:20.840Z,98679.81
2023-01-17T08:35:52.342Z,98662.75
2023-01-17T08:38:20.330Z,98690.03
2023-01-17T08:40:46.732Z,98681.13
2023-01-17T08:43:13.099Z,98682.16
2023-01-17T08:45:43.406Z,98686.66
2023-01-17T08:48:10.010Z,98696.31
2023-01-17T08:50:36.436Z,98694.25
2023-01-17T08:53:02.859Z,98698.44
2023-01-17T08:55:29.282Z,98699.22
2023-01-17T08:57:56.857Z,98708.41
2023-01-17T09:00:23.280Z,98702.38
2023-01-17T09:02:52.754Z,98711.53
2023-01-17T09:05:19.176Z,98711.28
2023-01-17T09:07:45.523Z,98718.63
2023-01-17T09:10:12.452Z,98712.34
2023-01-17T09:12:40.262Z,98714.69
2023-01-17T09:15:07.224Z,98719.69
2023-01-17T09:17:33.604Z,98722.06
2023-01-17T09:20:00.065Z,98723.59
2023-01-17T09:22:26.795Z,98721.00
2023-01-17T09:24:53.360Z,98729.38
2023-01-17T09:27:20.839Z,98729.91
2023-01-17T09:29:47.224Z,98723.66
2023-01-17T09:32:17.022Z,98728.66
2023-01-17T09:34:44.048Z,98724.44
2023-01-17T09:37:10.561Z,98733.59
2023-01-17T09:39:36.924Z,98730.72
2023-01-17T09:42:17.453Z,98730.72
2023-01-17T09:44:47.083Z,98729.44
2023-01-17T09:47:16.337Z,98731.72
2023-01-17T09:49:44.746Z,98726.53
2023-01-17T09:52:14.679Z,98712.38
2023-01-17T09:54:42.407Z,98733.63
2023-01-17T09:57:08.714Z,98734.13
2023-01-17T09:59:45.730Z,98737.56
2023-01-17T10:02:36.082Z,98748.06
2023-01-17T10:05:36.764Z,98757.22
2023-01-17T10:08:27.969Z,98749.63
2023-01-17T10:11:05.628Z,98763.53
2023-01-17T10:13:46.450Z,98754.88
2023-01-17T10:16:31.977Z,98764.56
2023-01-17T10:19:07.869Z,98766.66
2023-01-17T10:21:37.072Z,98760.91
2023-01-17T10:24:24.231Z,98771.38
2023-01-17T10:26:53.572Z,98766.66
2023-01-17T10:29:21.206Z,98767.44
2023-01-17T10:31:55.143Z,98762.75
2023-01-17T10:34:43.239Z,98768.00
2023-01-17T10:37:20.984Z,98763.28
2023-01-17T10:39:49.275Z,98738.09
2023-01-17T10:42:26.256Z,98761.44
2023-01-17T10:45:18.548Z,98766.41
2023-01-17T10:47:48.881Z,98766.69
2023-01-17T10:50:16.319Z,98764.06
2023-01-17T10:52:53.571Z,98760.63
2023-01-17T10:55:44.935Z,98759.59
2023-01-17T10:58:12.627Z,98755.91
2023-01-17T11:00:50.417Z,98761.16
2023-01-17T11:03:19.563Z,98755.63
2023-01-17T11:05:46.096Z,98753.03
2023-01-17T11:08:14.122Z,98756.72
2023-01-17T11:10:46.438Z,98757.50
2023-01-17T11:13:24.649Z,98752.25
2023-01-17T11:15:57.653Z,98753.78
2023-01-17T11:18:27.609Z,98766.66
2023-01-17T11:21:09.503Z,98761.66
2023-01-17T11:23:35.989Z,98758.78
2023-01-17T11:26:07.408Z,98759.56
2023-01-17T11:28:35.855Z,98760.34
2023-01-17T11:31:13.531Z,98755.63
2023-01-17T11:33:55.483Z,98763.22
2023-01-17T11:36:22.756Z,98751.44
2023-01-17T11:38:55.622Z,98756.41
2023-01-17T11:41:23.824Z,98756.16
2023-01-17T11:43:55.130Z,98754.88
2023-01-17T11:46:22.001Z,98758.25
2023-01-17T11:48:55.958Z,98749.09
2023-01-17T11:51:29.277Z,98750.41
2023-01-17T11:54:24.807Z,98751.72
2023-01-17T11:56:59.995Z,98695.06
2023-01-17T11:59:35.039Z,98741.47
2023-01-17T12:02:39.313Z,98747.50
2023-01-17T12:05:27.304Z,98745.94
2023-01-17T12:08:02.833Z,98734.94
2023-01-17T12:10:52.169Z,98745.69
2023-01-17T12:14:00.037Z,98741.75
2023-01-17T12:17:02.873Z,98742.53
2023-01-17T12:19:43.524Z,98732.06
2023-01-17T12:22:59.552Z,98746.75
2023-01-17T12:25:41.596Z,98741.47
2023-01-17T12:28:19.908Z,98743.59
2023-01-17T12:31:01.443Z,98739.66
2023-01-17T12:33:45.691Z,98735.97
2023-01-17T12:36:36.249Z,98728.66
2023-01-17T12:39:07.968Z,98723.41
2023-01-17T12:41:38.469Z,98724.69
2023-01-17T12:44:04.920Z,98719.97
2023-01-17T12:46:38.304Z,98725.75
2023-01-17T12:49:31.016Z,98723.41
2023-01-17T12:52:07.389Z,98730.22
2023-01-17T12:54:38.463Z,98730.47
2023-01-17T12:57:23.808Z,98731.28
2023-01-17T13:00:03.967Z,98734.69
2023-01-17T13:02:48.720Z,98726.81
2023-01-17T13:05:36.204Z,98724.44
2023-01-17T13:08:30.472Z,98725.22
2023-01-17T13:11:18.109Z,98724.72
2023-01-17T13:13:44.712Z,98711.59
2023-01-17T13:16:32.293Z,98724.97
2023-01-17T13:19:23.160Z,98728.88
2023-01-17T13:21:50.562Z,98714.47
2023-01-17T13:24:28.403Z,98726.00
2023-01-17T13:27:20.488Z,98728.91
2023-01-17T13:30:15.299Z,98733.63
2023-01-17T13:32:50.943Z,98727.59
2023-01-17T13:35:41.885Z,98731.25
2023-01-17T13:38:43.661Z,98727.84
2023-01-17T13:41:34.643Z,98722.59
2023-01-17T13:44:20.151Z,98725.22
2023-01-17T13:46:57.654Z,98722.84
2023-01-17T13:49:30.314Z,98726.81
2023-01-17T13:52:20.839Z,98729.94
2023-01-17T13:54:55.750Z,98734.94
2023-01-17T13:57:25.721Z,98739.13
2023-01-17T13:59:53.204Z,98735.97
2023-01-17T14:02:31.868Z,98743.31
2023-01-17T14:05:22.851Z,98739.38
2023-01-17T14:07:52.312Z,98752.75
2023-01-17T14:10:39.185Z,98754.84
2023-01-17T14:13:25.008Z,98755.63
2023-01-17T14:15:52.039Z,98759.03
2023-01-17T14:18:33.699Z,98753.81
2023-01-17T14:21:06.248Z,98758.78
2023-01-17T14:23:46.938Z,98755.13
2023-01-17T14:26:20.115Z,98753.78
2023-01-17T14:28:46.633Z,98761.94
2023-01-17T14:31:15.045Z,98754.06
2023-01-17T14:33:41.770Z,98754.59
2023-01-17T14:36:19.464Z,98755.63
2023-01-17T14:38:46.222Z,98757.50
2023-01-17T14:41:21.889Z,98766.91
2023-01-17T14:43:49.809Z,98760.88
2023-01-17T14:46:22.994Z,98761.66
2023-01-17T14:48:50.807Z,98759.56
2023-01-17T14:51:20.946Z,98762.19
2023-01-17T14:53:58.195Z,98760.13
2023-01-17T14:56:29.835Z,98759.03
2023-01-17T14:59:21.959Z,98763.25
2023-01-17T15:02:07.668Z,98759.03
2023-01-17T15:04:39.232Z,98773.19
2023-01-17T15:07:06.317Z,98772.16
2023-01-17T15:09:35.814Z,98776.91
2023-01-17T15:12:05.090Z,98778.72
2023-01-17T15:14:35.188Z,98771.91
2023-01-17T15:17:24.321Z,98781.09
2023-01-17T15:19:56.969Z,98789.47
2023-01-17T15:22:25.708Z,98781.06
2023-01-17T15:24:52.355Z,98782.66
2023-01-17T15:27:18.793Z,98786.84
2023-01-17T15:29:46.131Z,98793.69
2023-01-17T15:32:22.493Z,98794.19
2023-01-17T15:34:50.195Z,98791.56
2023-01-17T15:37:29.378Z,98792.91
2023-01-17T15:40:18.946Z,98793.16
2023-01-17T15:42:57.882Z,98785.53
2023-01-17T15:45:30.186Z,98789.72
2023-01-17T15:47:57.481Z,98784.72
2023-01-17T15:50:31.206Z,98793.94
2023-01-17T15:53:01.500Z,98790.50
2023-01-17T15:55:34.813Z,98792.63
2023-01-17T15:58:02.124Z,98783.16
2023-01-17T16:00:37.602Z,98777.16
2023-01-17T16:03:29.201Z,98796.56
2023-01-17T16:05:57.942Z,98788.94
2023-01-17T16:08:30.387Z,98799.44
2023-01-17T16:11:02.134Z,98790.50
2023-01-17T16:13:30.507Z,98791.28
2023-01-17T16:16:17.645Z,98791.56
2023-01-17T16:18:46.380Z,98788.94
2023-01-17T16:21:20.176Z,98792.34
2023-01-17T16:23:46.910Z,98799.41
2023-01-17T16:26:13.572Z,98799.41
2023-01-17T16:28:40.023Z,98776.34
2023-01-17T16:31:06.614Z,98801.00
2023-01-17T16:33:33.212Z,98805.25
2023-01-17T16:35:59.682Z,98794.44
2023-01-17T16:38:26.148Z,98793.91
2023-01-17T16:40:53.081Z,98809.66
2023-01-17T16:43:20.225Z,98805.47
2023-01-17T16:45:52.672Z,98811.75
2023-01-17T16:48:19.974Z,98814.91
2023-01-17T16:50:50.341Z,98812.84
2023-01-17T16:53:21.482Z,98821.22
2023-01-17T16:55:50.413Z,98819.63
2023-01-17T16:58:16.985Z,98827.78
2023-01-17T17:00:43.526Z,98820.16
2023-01-17T17:03:16.420Z,98841.44
2023-01-17T17:05:44.997Z,98836.72
2023-01-17T17:08:11.567Z,98836.72
2023-01-17T17:10:38.012Z,98838.53
2023-01-17T17:13:04.535Z,98843.78
2023-01-17T17:15:31.052Z,98839.88
2023-01-17T17:17:57.445Z,98846.97
2023-01-17T17:20:25.208Z,98842.75
2023-01-17T17:22:51.977Z,98848.25
2023-01-17T17:25:19.120Z,98856.13
2023-01-17T17:27:45.645Z,98851.19
2023-01-17T17:30:12.760Z,98850.63
2023-01-17T17:32:39.187Z,98862.19
2023-01-17T17:35:06.018Z,98860.88
2023-01-17T17:37:32.460Z,98866.41
2023-01-17T17:39:58.813Z,98855.34
2023-01-17T17:42:25.607Z,98867.97
2023-01-17T17:44:52.223Z,98869.03
2023-01-17T17:47:18.923Z,98873.75
2023-01-17T17:49:45.429Z,98879.25
2023-01-17T17:52:11.899Z,98881.34
2023-01-17T17:54:38.397Z,98879.78
2023-01-17T17:57:04.824Z,98876.88
2023-01-17T17:59:31.282Z,98886.84
2023-01-17T18:01:59.643Z,98889.75
2023-01-17T18:04:26.645Z,98895.25
2023-01-17T18:06:57.189Z,98896.03
2023-01-17T18:09:23.636Z,98893.41
2023-01-17T18:11:50.114Z,98898.13
2023-01-17T18:14:17.635Z,98906.25
2023-01-17T18:16:44.741Z,98904.94
2023-01-17T18:19:18.020Z,98905.72
2023-01-17T18:21:44.482Z,98915.69
2023-01-17T18:24:12.995Z,98913.56
2023-01-17T18:26:41.661Z,98924.31
2023-01-17T18:29:10.864Z,98934.28
2023-01-17T18:31:37.327Z,98935.34
2023-01-17T18:34:06.084Z,98932.44
2023-01-17T18:36:34.753Z,98939.53
2023-01-17T18:39:02.021Z,98938.75
2023-01-17T18:41:31.043Z,98942.13
2023-01-17T18:43:57.785Z,98940.31
2023-01-17T18:46:26.858Z,98944.22
2023-01-17T18:48:56.200Z,98946.81
2023-01-17T18:51:22.895Z,98946.81
2023-01-17T18:53:49.535Z,98953.38
2023-01-17T18:56:20.013Z,98954.13
2023-01-17T18:58:48.541Z,98952.56
2023-01-17T19:01:16.774Z,98953.06
2023-01-17T19:03:45.073Z,98954.13
2023-01-17T19:06:15.432Z,98955.38
2023-01-17T19:08:42.383Z,98960.09
2023-01-17T19:11:09.722Z,98959.56
2023-01-17T19:13:37.183Z,98963.50
2023-01-17T19:16:15.290Z,98970.81
2023-01-17T19:18:41.744Z,98969.50
2023-01-17T19:21:13.715Z,98973.16
2023-01-17T19:23:40.573Z,98966.03
2023-01-17T19:26:08.876Z,98972.56
2023-01-17T19:28:43.727Z,98982.53
2023-01-17T19:31:12.776Z,98975.19
2023-01-17T19:33:42.054Z,98987.22
2023-01-17T19:36:14.337Z,98982.50
2023-01-17T19:38:40.746Z,98986.91
2023-01-17T19:41:13.432Z,98990.84
2023-01-17T19:43:42.126Z,98984.28
2023-01-17T19:46:09.409Z,98990.81
2023-01-17T19:48:37.531Z,98996.31
2023-01-17T19:51:09.180Z,98996.53
2023-01-17T19:53:37.197Z,99000.72
2023-01-17T19:56:08.446Z,99001.97
2023-01-17T19:58:35.272Z,98998.63
2023-01-17T20:01:15.810Z,98997.75
2023-01-17T20:03:45.611Z,98996.22
2023-01-17T20:06:13.774Z,98994.06
2023-01-17T20:08:40.616Z,98997.22
2023-01-17T20:11:09.085Z,98992.75
2023-01-17T20:13:35.559Z,98990.38
2023-01-17T20:16:04.079Z,98994.31
2023-01-17T20:18:31.701Z,98995.59
2023-01-17T20:21:06.418Z,98998.41
2023-01-17T20:23:35.275Z,98997.91
2023-01-17T20:26:04.562Z,99000.78
2023-01-17T20:28:32.998Z,99001.28
2023-01-17T20:31:08.967Z,98995.22
2023-01-17T20:33:36.186Z,98995.75
2023-01-17T20:36:10.764Z,98984.94
2023-01-17T20:38:44.009Z,98995.22
2023-01-17T20:41:11.268Z,98998.81
2023-01-17T20:43:37.778Z,99005.13
2023-01-17T20:46:05.442Z,98999.34
2023-01-17T20:48:31.871Z,99012.41
2023-01-17T20:51:10.428Z,99007.13
2023-01-17T20:53:38.300Z,99011.84
2023-01-17T20:56:05.904Z,99005.06
2023-01-17T20:58:33.984Z,99007.69
2023-01-17T21:01:00.991Z,99012.09
2023-01-17T21:03:33.700Z,99013.16
2023-01-17T21:06:04.028Z,99012.63
2023-01-17T21:08:35.583Z,99011.50
2023-01-17T21:11:02.151Z,99012.88
2023-01-17T21:13:28.582Z,99014.91
2023-01-17T21:15:55.252Z,99014.13
2023-01-17T21:18:23.033Z,99013.84
2023-01-17T21:20:50.057Z,99017.00
2023-01-17T21:23:19.980Z,99018.00
2023-01-17T21:25:56.936Z,99022.66
2023-01-17T21:28:28.992Z,99025.28
2023-01-17T21:30:55.917Z,99024.78
2023-01-17T21:33:23.812Z,99016.16
2023-01-17T21:35:50.249Z,99016.41
2023-01-17T21:38:16.745Z,99020.03
2023-01-17T21:40:43.916Z,99022.88
2023-01-17T21:43:10.991Z,99025.50
2023-01-17T21:45:41.042Z,99024.66
2023-01-17T21:48:12.015Z,99016.53
2023-01-17T21:50:38.617Z,99028.88
2023-01-17T21:53:05.015Z,99030.69
2023-01-17T21:55:50.206Z,99031.75
2023-01-17T21:58:35.982Z,99024.38
2023-01-17T22:01:15.981Z,99031.44
2023-01-17T22:03:43.444Z,99028.03
2023-01-17T22:06:12.776Z,99030.91
2023-01-17T22:08:39.296Z,99030.91
2023-01-17T22:11:07.392Z,99029.31
2023-01-17T22:13:34.682Z,99027.75
2023-01-17T22:16:03.025Z,99032.16
2023-01-17T22:18:30.120Z,99027.97
2023-01-17T22:20:57.121Z,99027.19
2023-01-17T22:23:23.559Z,99030.84
2023-01-17T22:25:49.924Z,99034.25
2023-01-17T22:28:16.341Z,99043.91
2023-01-17T22:30:42.779Z,99043.13
2023-01-17T22:33:09.143Z,99045.00
2023-01-17T22:35:35.517Z,99041.13
2023-01-17T22:38:01.989Z,99043.00
2023-01-17T22:40:28.392Z,99052.97
2023-01-17T22:42:55.095Z,99055.59
2023-01-17T22:45:21.720Z,99049.00
2023-01-17T22:47:48.108Z,99055.06
2023-01-17T22:50:14.551Z,99063.19
2023-01-17T22:52:41.847Z,99053.75
2023-01-17T22:55:08.685Z,99055.34
2023-01-17T22:57:35.059Z,99055.13
2023-01-17T23:00:01.474Z,99055.91
2023-01-17T23:02:28.017Z,99057.22
2023-01-17T23:04:54.437Z,99054.34
2023-01-17T23:07:23.980Z,99058.56
2023-01-17T23:09:50.452Z,99061.72
2023-01-17T23:12:16.977Z,99056.50
2023-01-17T23:15:02.138Z,99065.91
2023-01-17T23:17:46.861Z,99056.00
2023-01-17T23:20:13.316Z,99062.28
2023-01-17T23:22:39.675Z,99064.44
2023-01-17T23:25:11.920Z,99065.66
2023-01-17T23:28:04.480Z,99062.28
2023-01-17T23:30:35.327Z,99049.66
2023-01-17T23:33:03.085Z,99060.97
2023-01-17T23:35:38.016Z,99057.81
2023-01-17T23:38:25.809Z,99058.94
2023-01-17T23:41:11.804Z,99054.75
2023-01-17T23:43:38.260Z,99053.97
2023-01-17T23:46:05.257Z,99055.53
2023-01-17T23:48:31.663Z,99050.50
2023-01-17T23:51:00.176Z,99053.13
2023-01-17T23:53:27.307Z,99050.50
2023-01-17T23:55:55.620Z,99049.50
2023-01-17T23:58:26.452Z,99051.00
